sensor_id;sensor_type;location;lat;lon;timestamp;pressure;altitude;pressure_sealevel;temperature;humidity
57799;BME280;43626;53.866;30.298;2023-03-15T00:04:15;1010.4;;;6.2;44.9
57799;BME280;43626;53.866;30.298;2023-03-15T00:08:41;1010.4;;;6.2;44.5
57799;BME280;43626;53.866;30.298;2023-03-15T00:14:17;1010.5;;;6.3;44.4
57799;BME280;43626;53.866;30.298;2023-03-15T00:19:17;1010.5;;;6.3;44.2
57799;BME280;43626;53.866;30.298;2023-03-15T00:24:03;1010.4;;;6.3;44.1
57799;BME280;43626;53.866;30.298;2023-03-15T00:29:09;1010.5;;;6.3;43.9
57799;BME280;43626;53.866;30.298;2023-03-15T00:34:03;1010.5;;;6.3;43.9
57799;BME280;43626;53.866;30.298;2023-03-15T00:39:01;1010.5;;;6.3;43.8
57799;BME280;43626;53.866;30.298;2023-03-15T00:44:07;1010.5;;;6.3;43.8
57799;BME280;43626;53.866;30.298;2023-03-15T00:48:41;1010.5;;;6.3;43.7
57799;BME280;43626;53.866;30.298;2023-03-15T00:54:17;1010.6;;;6.3;43.7
57799;BME280;43626;53.866;30.298;2023-03-15T00:59:01;1010.6;;;6.3;43.6
57799;BME280;43626;53.866;30.298;2023-03-15T01:03:33;1010.6;;;6.2;43.2
57799;BME280;43626;53.866;30.298;2023-03-15T01:08:47;1010.7;;;6.2;42.9
57799;BME280;43626;53.866;30.298;2023-03-15T01:14:17;1010.8;;;6.2;42.8
57799;BME280;43626;53.866;30.298;2023-03-15T01:18:41;1010.8;;;6.2;42.5
57799;BME280;43626;53.866;30.298;2023-03-15T01:23:51;1010.7;;;6.2;42.5
57799;BME280;43626;53.866;30.298;2023-03-15T01:29:17;1010.8;;;6.2;42.6
57799;BME280;43626;53.866;30.298;2023-03-15T01:33:45;1010.8;;;6.2;42.8
57799;BME280;43626;53.866;30.298;2023-03-15T01:39:07;1010.8;;;6.1;42.6
57799;BME280;43626;53.866;30.298;2023-03-15T01:43:55;1010.8;;;6.1;42.7
57799;BME280;43626;53.866;30.298;2023-03-15T01:49:18;1010.8;;;6;42.5
57799;BME280;43626;53.866;30.298;2023-03-15T01:54:11;1010.7;;;5.9;42.5
57799;BME280;43626;53.866;30.298;2023-03-15T01:58:47;1010.7;;;5.9;42.4
57799;BME280;43626;53.866;30.298;2023-03-15T02:03:48;1010.7;;;5.8;42.2
57799;BME280;43626;53.866;30.298;2023-03-15T02:09:02;1010.7;;;5.7;42.2
57799;BME280;43626;53.866;30.298;2023-03-15T02:13:33;1010.7;;;5.7;42
57799;BME280;43626;53.866;30.298;2023-03-15T02:18:53;1010.7;;;5.6;42
57799;BME280;43626;53.866;30.298;2023-03-15T02:23:41;1010.7;;;5.6;42.1
57799;BME280;43626;53.866;30.298;2023-03-15T02:28:41;1010.7;;;5.6;42.4
57799;BME280;43626;53.866;30.298;2023-03-15T02:34:17;1010.8;;;5.6;42.4
57799;BME280;43626;53.866;30.298;2023-03-15T02:39:12;1010.9;;;5.6;42.5
57799;BME280;43626;53.866;30.298;2023-03-15T02:43:41;1010.9;;;5.6;42.4
57799;BME280;43626;53.866;30.298;2023-03-15T02:49:17;1010.9;;;5.6;42.4
57799;BME280;43626;53.866;30.298;2023-03-15T02:53:55;1011;;;5.6;42.5
57799;BME280;43626;53.866;30.298;2023-03-15T02:58:47;1011;;;5.6;42.3
57799;BME280;43626;53.866;30.298;2023-03-15T03:04:01;1010.9;;;5.5;42
57799;BME280;43626;53.866;30.298;2023-03-15T03:09:17;1010.9;;;5.5;42.1
57799;BME280;43626;53.866;30.298;2023-03-15T03:13:33;1010.9;;;5.5;42
57799;BME280;43626;53.866;30.298;2023-03-15T03:19:17;1010.9;;;5.5;42.1
57799;BME280;43626;53.866;30.298;2023-03-15T03:24:18;1011;;;5.5;42.2
57799;BME280;43626;53.866;30.298;2023-03-15T03:29:03;1011;;;5.5;42.4
57799;BME280;43626;53.866;30.298;2023-03-15T03:33:54;1011;;;5.6;42.3
57799;BME280;43626;53.866;30.298;2023-03-15T03:38:49;1011.1;;;5.6;42.4
57799;BME280;43626;53.866;30.298;2023-03-15T03:44:01;1011.1;;;5.6;42.3
57799;BME280;43626;53.866;30.298;2023-03-15T03:49:09;1011.1;;;5.5;42.4
57799;BME280;43626;53.866;30.298;2023-03-15T03:53:33;1011.1;;;5.5;42.2
57799;BME280;43626;53.866;30.298;2023-03-15T03:59:17;1011.1;;;5.5;42
57799;BME280;43626;53.866;30.298;2023-03-15T04:03:35;1011.1;;;5.5;42.1
57799;BME280;43626;53.866;30.298;2023-03-15T04:08:41;1011.2;;;5.5;41.9
57799;BME280;43626;53.866;30.298;2023-03-15T04:13:47;1011.3;;;5.5;41.4
57799;BME280;43626;53.866;30.298;2023-03-15T04:19:17;1011.3;;;5.5;41.2
57799;BME280;43626;53.866;30.298;2023-03-15T04:23:33;1011.4;;;5.6;41.5
57799;BME280;43626;53.866;30.298;2023-03-15T04:29:17;1011.4;;;5.5;41.7
57799;BME280;43626;53.866;30.298;2023-03-15T04:34:17;1011.3;;;5.6;41.6
57799;BME280;43626;53.866;30.298;2023-03-15T04:39:01;1011.3;;;5.6;41.7
57799;BME280;43626;53.866;30.298;2023-03-15T04:44:09;1011.3;;;5.6;41.8
57799;BME280;43626;53.866;30.298;2023-03-15T04:48:47;1011.3;;;5.6;41.7
57799;BME280;43626;53.866;30.298;2023-03-15T04:53:39;1011.5;;;5.6;41.5
57799;BME280;43626;53.866;30.298;2023-03-15T04:59:09;1011.7;;;5.6;41
57799;BME280;43626;53.866;30.298;2023-03-15T05:04:13;1011.6;;;5.5;40.8
57799;BME280;43626;53.866;30.298;2023-03-15T05:08:55;1011.7;;;5.5;40.5
57799;BME280;43626;53.866;30.298;2023-03-15T05:14:01;1011.7;;;5.5;40.7
57799;BME280;43626;53.866;30.298;2023-03-15T05:18:41;1011.7;;;5.5;40.9
57799;BME280;43626;53.866;30.298;2023-03-15T05:23:47;1011.7;;;5.5;41.4
57799;BME280;43626;53.866;30.298;2023-03-15T05:28:33;1011.6;;;5.5;41.7
57799;BME280;43626;53.866;30.298;2023-03-15T05:33:33;1011.6;;;5.5;42.1
57799;BME280;43626;53.866;30.298;2023-03-15T05:39:15;1011.8;;;5.5;42.3
57799;BME280;43626;53.866;30.298;2023-03-15T05:43:49;1011.9;;;5.4;42.5
57799;BME280;43626;53.866;30.298;2023-03-15T05:48:33;1011.9;;;5.4;42.7
57799;BME280;43626;53.866;30.298;2023-03-15T05:54:15;1012;;;5.3;43.1
57799;BME280;43626;53.866;30.298;2023-03-15T05:58:53;1012.1;;;5.3;43.3
57799;BME280;43626;53.866;30.298;2023-03-15T06:03:39;1012.1;;;5.4;43.7
57799;BME280;43626;53.866;30.298;2023-03-15T06:08:59;1012.2;;;5.5;43.8
57799;BME280;43626;53.866;30.298;2023-03-15T06:14:15;1012.3;;;5.5;43.8
57799;BME280;43626;53.866;30.298;2023-03-15T06:18:33;1012.3;;;5.6;43.9
57799;BME280;43626;53.866;30.298;2023-03-15T06:24:13;1012.4;;;5.8;43.8
57799;BME280;43626;53.866;30.298;2023-03-15T06:29:15;1012.4;;;5.9;43.9
57799;BME280;43626;53.866;30.298;2023-03-15T06:34:03;1012.3;;;6.1;43.8
57799;BME280;43626;53.866;30.298;2023-03-15T06:38:53;1012.4;;;6.2;43.8
57799;BME280;43626;53.866;30.298;2023-03-15T06:44:03;1012.4;;;6.3;44
57799;BME280;43626;53.866;30.298;2023-03-15T06:49:02;1012.5;;;6.3;44.3
57799;BME280;43626;53.866;30.298;2023-03-15T06:54:09;1012.5;;;6.4;44
57799;BME280;43626;53.866;30.298;2023-03-15T06:58:41;1012.5;;;6.4;44
57799;BME280;43626;53.866;30.298;2023-03-15T07:04:15;1012.5;;;6.4;44.5
57799;BME280;43626;53.866;30.298;2023-03-15T07:09:02;1012.4;;;6.3;44.9
57799;BME280;43626;53.866;30.298;2023-03-15T07:13:42;1012.5;;;6.3;45.2
57799;BME280;43626;53.866;30.298;2023-03-15T07:19:03;1012.6;;;6.3;45.2
57799;BME280;43626;53.866;30.298;2023-03-15T07:24:09;1012.6;;;6.4;45.2
57799;BME280;43626;53.866;30.298;2023-03-15T07:28:41;1012.7;;;6.4;45.2
57799;BME280;43626;53.866;30.298;2023-03-15T07:34:03;1012.6;;;6.5;45.1
57799;BME280;43626;53.866;30.298;2023-03-15T07:39:03;1012.6;;;6.5;45
57799;BME280;43626;53.866;30.298;2023-03-15T07:43:41;1012.7;;;6.5;45.2
57799;BME280;43626;53.866;30.298;2023-03-15T07:49:15;1012.7;;;6.5;45.3
57799;BME280;43626;53.866;30.298;2023-03-15T07:53:53;1012.8;;;6.5;45.3
57799;BME280;43626;53.866;30.298;2023-03-15T07:58:41;1012.8;;;6.5;45.5
57799;BME280;43626;53.866;30.298;2023-03-15T08:04:09;1012.7;;;6.5;45.8
57799;BME280;43626;53.866;30.298;2023-03-15T08:09:17;1012.7;;;6.6;46.5
57799;BME280;43626;53.866;30.298;2023-03-15T08:13:47;1012.7;;;6.8;46.3
57799;BME280;43626;53.866;30.298;2023-03-15T08:19:01;1012.6;;;7;46.4
57799;BME280;43626;53.866;30.298;2023-03-15T08:24:09;1012.7;;;7.1;46.4
57799;BME280;43626;53.866;30.298;2023-03-15T08:28:57;1012.9;;;7.3;46.5
57799;BME280;43626;53.866;30.298;2023-03-15T08:33:33;1012.9;;;7.4;46.5
57799;BME280;43626;53.866;30.298;2023-03-15T08:38:33;1012.9;;;7.3;46.7
57799;BME280;43626;53.866;30.298;2023-03-15T08:44:17;1013.1;;;7.3;46.9
57799;BME280;43626;53.866;30.298;2023-03-15T08:49:17;1013.2;;;7.3;47.2
57799;BME280;43626;53.866;30.298;2023-03-15T08:53:34;1013.3;;;7.3;47.2
57799;BME280;43626;53.866;30.298;2023-03-15T08:59:17;1013.3;;;7.4;47.3
57799;BME280;43626;53.866;30.298;2023-03-15T09:03:55;1013.3;;;7.5;46.3
57799;BME280;43626;53.866;30.298;2023-03-15T09:08:55;1013.3;;;7.7;45.8
57799;BME280;43626;53.866;30.298;2023-03-15T09:13:47;1013.2;;;7.8;45.5
57799;BME280;43626;53.866;30.298;2023-03-15T09:19:15;1013.2;;;7.9;45.3
57799;BME280;43626;53.866;30.298;2023-03-15T09:23:41;1013.2;;;7.9;45.3
57799;BME280;43626;53.866;30.298;2023-03-15T09:29:17;1013.2;;;7.8;45.1
57799;BME280;43626;53.866;30.298;2023-03-15T09:34:15;1013.2;;;7.9;45.2
57799;BME280;43626;53.866;30.298;2023-03-15T09:38:41;1013.1;;;8;45.1
57799;BME280;43626;53.866;30.298;2023-03-15T09:43:56;1013.2;;;8.2;44.9
57799;BME280;43626;53.866;30.298;2023-03-15T09:48:55;1013.2;;;8.3;44.2
57799;BME280;43626;53.866;30.298;2023-03-15T09:54:16;1013.3;;;8.3;44
57799;BME280;43626;53.866;30.298;2023-03-15T09:59:08;1013.2;;;8.3;44
57799;BME280;43626;53.866;30.298;2023-03-15T10:03:55;1013.2;;;8.4;43.9
57799;BME280;43626;53.866;30.298;2023-03-15T10:08:47;1013.3;;;8.4;44.1
57799;BME280;43626;53.866;30.298;2023-03-15T10:14:05;1013.2;;;8.5;44
57799;BME280;43626;53.866;30.298;2023-03-15T10:18:45;1013.2;;;8.6;43.8
57799;BME280;43626;53.866;30.298;2023-03-15T10:23:48;1013.2;;;8.7;43.8
57799;BME280;43626;53.866;30.298;2023-03-15T10:28:52;1013.2;;;8.8;43.8
57799;BME280;43626;53.866;30.298;2023-03-15T10:33:42;1013.2;;;8.9;43.5
57799;BME280;43626;53.866;30.298;2023-03-15T10:39:17;1013.3;;;9;43.2
57799;BME280;43626;53.866;30.298;2023-03-15T10:44:04;1013.3;;;9.1;43.4
57799;BME280;43626;53.866;30.298;2023-03-15T10:48:51;1013.3;;;9.3;42.9
57799;BME280;43626;53.866;30.298;2023-03-15T10:54:18;1013.3;;;9.3;42.4
57799;BME280;43626;53.866;30.298;2023-03-15T10:58:45;1013.4;;;9.3;42.5
57799;BME280;43626;53.866;30.298;2023-03-15T11:03:40;1013.4;;;9.3;42.3
57799;BME280;43626;53.866;30.298;2023-03-15T11:09:06;1013.5;;;9.2;42.9
57799;BME280;43626;53.866;30.298;2023-03-15T11:14:16;1013.5;;;9.2;43.3
57799;BME280;43626;53.866;30.298;2023-03-15T11:18:35;1013.5;;;9.1;43.4
57799;BME280;43626;53.866;30.298;2023-03-15T11:24:02;1013.5;;;9;43.5
57799;BME280;43626;53.866;30.298;2023-03-15T11:29:17;1013.6;;;8.9;43.5
57799;BME280;43626;53.866;30.298;2023-03-15T11:33:37;1013.6;;;8.8;43.9
57799;BME280;43626;53.866;30.298;2023-03-15T11:39:07;1013.6;;;8.7;44
57799;BME280;43626;53.866;30.298;2023-03-15T11:43:49;1013.6;;;8.7;44.2
57799;BME280;43626;53.866;30.298;2023-03-15T11:49:01;1013.7;;;8.7;44.6
57799;BME280;43626;53.866;30.298;2023-03-15T11:54:09;1013.7;;;8.9;44.4
57799;BME280;43626;53.866;30.298;2023-03-15T11:58:40;1013.7;;;9.1;44.4
57799;BME280;43626;53.866;30.298;2023-03-15T12:04:47;1013.6;;;9.2;44.2
57799;BME280;43626;53.866;30.298;2023-03-15T12:09:00;1013.6;;;9.3;44.4
57799;BME280;43626;53.866;30.298;2023-03-15T12:13:34;1013.6;;;9.3;44.4
57799;BME280;43626;53.866;30.298;2023-03-15T12:18:45;1013.5;;;9.4;44.4
57799;BME280;43626;53.866;30.298;2023-03-15T12:24:13;1013.6;;;9.5;44.5
57799;BME280;43626;53.866;30.298;2023-03-15T12:28:34;1013.7;;;9.4;44.3
57799;BME280;43626;53.866;30.298;2023-03-15T12:34:03;1013.8;;;9.4;44
57799;BME280;43626;53.866;30.298;2023-03-15T12:39:03;1013.8;;;9.3;44.8
57799;BME280;43626;53.866;30.298;2023-03-15T12:43:40;1013.9;;;9.3;46.1
57799;BME280;43626;53.866;30.298;2023-03-15T12:49:27;1013.9;;;9.2;46.4
57799;BME280;43626;53.866;30.298;2023-03-15T12:53:44;1013.9;;;9.2;46.1
57799;BME280;43626;53.866;30.298;2023-03-15T12:58:34;1014;;;9.1;46.3
57799;BME280;43626;53.866;30.298;2023-03-15T13:04:08;1014.1;;;9;46.6
57799;BME280;43626;53.866;30.298;2023-03-15T13:09:18;1014.2;;;8.9;47.1
57799;BME280;43626;53.866;30.298;2023-03-15T13:13:53;1014.2;;;8.8;47.4
57799;BME280;43626;53.866;30.298;2023-03-15T13:18:58;1014.2;;;8.7;47.7
57799;BME280;43626;53.866;30.298;2023-03-15T13:24:10;1014.1;;;8.7;47.8
57799;BME280;43626;53.866;30.298;2023-03-15T13:28:46;1014.2;;;8.6;47.9
57799;BME280;43626;53.866;30.298;2023-03-15T13:33:45;1014.2;;;8.6;47.7
57799;BME280;43626;53.866;30.298;2023-03-15T13:39:00;1014.2;;;8.7;47.4
57799;BME280;43626;53.866;30.298;2023-03-15T13:44:17;1014.3;;;8.7;47.1
57799;BME280;43626;53.866;30.298;2023-03-15T13:49:02;1014.3;;;8.8;46.9
57799;BME280;43626;53.866;30.298;2023-03-15T13:53:34;1014.3;;;8.8;46.8
57799;BME280;43626;53.866;30.298;2023-03-15T13:59:14;1014.3;;;8.8;46.7
57799;BME280;43626;53.866;30.298;2023-03-15T14:03:53;1014.3;;;8.8;46.6
57799;BME280;43626;53.866;30.298;2023-03-15T14:08:42;1014.2;;;8.8;46.7
57799;BME280;43626;53.866;30.298;2023-03-15T14:14:00;1014.2;;;8.8;47.1
57799;BME280;43626;53.866;30.298;2023-03-15T14:19:17;1014.2;;;8.8;47.3
57799;BME280;43626;53.866;30.298;2023-03-15T14:23:54;1014.2;;;8.8;47.6
57799;BME280;43626;53.866;30.298;2023-03-15T14:29:03;1014.3;;;8.8;47.7
57799;BME280;43626;53.866;30.298;2023-03-15T14:34:17;1014.4;;;8.7;47.7
57799;BME280;43626;53.866;30.298;2023-03-15T14:39:02;1014.3;;;8.7;47.9
57799;BME280;43626;53.866;30.298;2023-03-15T14:43:54;1014.4;;;8.7;47.8
57799;BME280;43626;53.866;30.298;2023-03-15T14:49:02;1014.5;;;8.7;48.1
57799;BME280;43626;53.866;30.298;2023-03-15T14:54:02;1014.5;;;8.6;48.4
57799;BME280;43626;53.866;30.298;2023-03-15T14:59:09;1014.5;;;8.6;48.6
57799;BME280;43626;53.866;30.298;2023-03-15T15:03:34;1014.6;;;8.5;48.5
57799;BME280;43626;53.866;30.298;2023-03-15T15:09:16;1014.7;;;8.4;49
57799;BME280;43626;53.866;30.298;2023-03-15T15:14:00;1014.8;;;8.3;48.9
57799;BME280;43626;53.866;30.298;2023-03-15T15:18:34;1014.8;;;8.2;49.2
57799;BME280;43626;53.866;30.298;2023-03-15T15:23:34;1014.9;;;8.1;49.6
57799;BME280;43626;53.866;30.298;2023-03-15T15:29:07;1014.9;;;7.9;49.9
57799;BME280;43626;53.866;30.298;2023-03-15T15:33:34;1015;;;7.7;50.5
57799;BME280;43626;53.866;30.298;2023-03-15T15:39:02;1015;;;7.6;51.1
57799;BME280;43626;53.866;30.298;2023-03-15T15:43:58;1015.1;;;7.5;51.5
57799;BME280;43626;53.866;30.298;2023-03-15T15:48:34;1015.3;;;7.5;51.6
57799;BME280;43626;53.866;30.298;2023-03-15T15:54:18;1015.4;;;7.6;51.4
57799;BME280;43626;53.866;30.298;2023-03-15T15:58:34;1015.4;;;7.6;51.6
57799;BME280;43626;53.866;30.298;2023-03-15T16:04:12;1015.5;;;7.4;52
57799;BME280;43626;53.866;30.298;2023-03-15T16:09:10;1015.4;;;7.4;52.2
57799;BME280;43626;53.866;30.298;2023-03-15T16:14:16;1015.5;;;7.4;52.3
57799;BME280;43626;53.866;30.298;2023-03-15T16:18:34;1015.5;;;7.4;52.6
57799;BME280;43626;53.866;30.298;2023-03-15T16:24:03;1015.5;;;7.2;53.3
57799;BME280;43626;53.866;30.298;2023-03-15T16:29:13;1015.6;;;7;54.3
57799;BME280;43626;53.866;30.298;2023-03-15T16:34:07;1015.5;;;6.8;54.9
57799;BME280;43626;53.866;30.298;2023-03-15T16:38:36;1015.4;;;6.6;55.6
57799;BME280;43626;53.866;30.298;2023-03-15T16:43:46;1015.5;;;6.4;56.3
57799;BME280;43626;53.866;30.298;2023-03-15T16:49:20;1015.7;;;6.3;56.6
57799;BME280;43626;53.866;30.298;2023-03-15T16:54:20;1015.9;;;6.1;56.8
57799;BME280;43626;53.866;30.298;2023-03-15T16:58:44;1016;;;6;57.1
57799;BME280;43626;53.866;30.298;2023-03-15T17:04:20;1016;;;6;57.3
57799;BME280;43626;53.866;30.298;2023-03-15T17:08:58;1016;;;5.9;57.5
57799;BME280;43626;53.866;30.298;2023-03-15T17:13:36;1016.1;;;6;57.6
57799;BME280;43626;53.866;30.298;2023-03-15T17:18:50;1016.2;;;5.9;58.3
57799;BME280;43626;53.866;30.298;2023-03-15T17:24:20;1016.2;;;5.9;58.7
57799;BME280;43626;53.866;30.298;2023-03-15T17:28:58;1016.2;;;5.8;59.1
57799;BME280;43626;53.866;30.298;2023-03-15T17:34:02;1016.3;;;5.6;59.7
57799;BME280;43626;53.866;30.298;2023-03-15T17:39:20;1016.5;;;5.5;60.3
57799;BME280;43626;53.866;30.298;2023-03-15T17:43:46;1016.6;;;5.4;60.3
57799;BME280;43626;53.866;30.298;2023-03-15T17:48:56;1016.7;;;5.3;60.2
57799;BME280;43626;53.866;30.298;2023-03-15T17:54:20;1016.8;;;5.1;60.4
57799;BME280;43626;53.866;30.298;2023-03-15T17:59:04;1016.7;;;5;60.5
57799;BME280;43626;53.866;30.298;2023-03-15T18:04:12;1016.7;;;4.8;60.8
57799;BME280;43626;53.866;30.298;2023-03-15T18:08:44;1016.6;;;4.6;61.1
57799;BME280;43626;53.866;30.298;2023-03-15T18:14:20;1016.5;;;4.3;61.8
57799;BME280;43626;53.866;30.298;2023-03-15T18:19:04;1016.6;;;4.2;63.2
57799;BME280;43626;53.866;30.298;2023-03-15T18:23:36;1016.6;;;4.1;63.6
57799;BME280;43626;53.866;30.298;2023-03-15T18:28:42;1016.6;;;4;63.9
57799;BME280;43626;53.866;30.298;2023-03-15T18:34:00;1016.6;;;3.9;64.2
57799;BME280;43626;53.866;30.298;2023-03-15T18:38:36;1016.6;;;3.9;64.2
57799;BME280;43626;53.866;30.298;2023-03-15T18:44:00;1016.5;;;3.8;64.2
57799;BME280;43626;53.866;30.298;2023-03-15T18:48:52;1016.6;;;3.6;64.3
57799;BME280;43626;53.866;30.298;2023-03-15T18:53:36;1016.6;;;3.6;64.5
57799;BME280;43626;53.866;30.298;2023-03-15T18:59:20;1016.7;;;3.6;64.4
57799;BME280;43626;53.866;30.298;2023-03-15T19:03:58;1016.7;;;3.5;64.5
57799;BME280;43626;53.866;30.298;2023-03-15T19:08:36;1016.7;;;3.5;64.4
57799;BME280;43626;53.866;30.298;2023-03-15T19:14:12;1016.7;;;3.5;64.6
57799;BME280;43626;53.866;30.298;2023-03-15T19:19:18;1016.7;;;3.5;64.8
57799;BME280;43626;53.866;30.298;2023-03-15T19:24:20;1016.7;;;3.4;65.4
57799;BME280;43626;53.866;30.298;2023-03-15T19:29:02;1016.8;;;3.4;65.5
57799;BME280;43626;53.866;30.298;2023-03-15T19:34:04;1016.9;;;3.4;65.7
57799;BME280;43626;53.866;30.298;2023-03-15T19:39:06;1016.9;;;3.4;65.6
57799;BME280;43626;53.866;30.298;2023-03-15T19:43:56;1017;;;3.5;65.3
57799;BME280;43626;53.866;30.298;2023-03-15T19:48:56;1017;;;3.4;65.2
57799;BME280;43626;53.866;30.298;2023-03-15T19:54:20;1017.1;;;3.3;65.2
57799;BME280;43626;53.866;30.298;2023-03-15T19:59:10;1017;;;3.3;65.4
57799;BME280;43626;53.866;30.298;2023-03-15T20:03:42;1017.1;;;3.3;65.2
57799;BME280;43626;53.866;30.298;2023-03-15T20:09:20;1017.3;;;3.4;65.2
57799;BME280;43626;53.866;30.298;2023-03-15T20:13:58;1017.4;;;3.5;65
57799;BME280;43626;53.866;30.298;2023-03-15T20:18:58;1017.4;;;3.6;64.9
57799;BME280;43626;53.866;30.298;2023-03-15T20:23:50;1017.4;;;3.7;64.7
57799;BME280;43626;53.866;30.298;2023-03-15T20:29:18;1017.4;;;3.8;64.4
57799;BME280;43626;53.866;30.298;2023-03-15T20:33:36;1017.4;;;3.7;64.2
57799;BME280;43626;53.866;30.298;2023-03-15T20:38:52;1017.4;;;3.5;64.9
57799;BME280;43626;53.866;30.298;2023-03-15T20:44:18;1017.4;;;3.4;65.3
57799;BME280;43626;53.866;30.298;2023-03-15T20:48:54;1017.5;;;3.3;65.4
57799;BME280;43626;53.866;30.298;2023-03-15T20:53:36;1017.5;;;3.3;65.5
57799;BME280;43626;53.866;30.298;2023-03-15T20:59:02;1017.5;;;3.4;65.3
57799;BME280;43626;53.866;30.298;2023-03-15T21:04:18;1017.5;;;3.3;65.4
57799;BME280;43626;53.866;30.298;2023-03-15T21:09:10;1017.5;;;3.3;65.5
57799;BME280;43626;53.866;30.298;2023-03-15T21:13:36;1017.5;;;3.2;65.6
57799;BME280;43626;53.866;30.298;2023-03-15T21:18:42;1017.5;;;3.2;66
57799;BME280;43626;53.866;30.298;2023-03-15T21:24:02;1017.5;;;3.1;66.5
57799;BME280;43626;53.866;30.298;2023-03-15T21:29:10;1017.6;;;2.9;66.8
57799;BME280;43626;53.866;30.298;2023-03-15T21:33:36;1017.6;;;2.8;67.5
57799;BME280;43626;53.866;30.298;2023-03-15T21:38:44;1017.6;;;2.9;67.6
57799;BME280;43626;53.866;30.298;2023-03-15T21:43:36;1017.7;;;3;67.2
57799;BME280;43626;53.866;30.298;2023-03-15T21:49:06;1017.8;;;3.1;66.8
57799;BME280;43626;53.866;30.298;2023-03-15T21:53:58;1017.8;;;3.3;66.5
57799;BME280;43626;53.866;30.298;2023-03-15T21:58:54;1017.9;;;3.4;66.2
57799;BME280;43626;53.866;30.298;2023-03-15T22:04:18;1017.9;;;3.5;65.8
57799;BME280;43626;53.866;30.298;2023-03-15T22:08:58;1017.9;;;3.5;65.7
57799;BME280;43626;53.866;30.298;2023-03-15T22:13:36;1017.9;;;3.4;65.7
57799;BME280;43626;53.866;30.298;2023-03-15T22:19:00;1017.9;;;3.3;66
57799;BME280;43626;53.866;30.298;2023-03-15T22:24:20;1017.9;;;3.4;65.9
57799;BME280;43626;53.866;30.298;2023-03-15T22:29:06;1017.9;;;3.4;65.7
57799;BME280;43626;53.866;30.298;2023-03-15T22:34:18;1018;;;3.2;66.2
57799;BME280;43626;53.866;30.298;2023-03-15T22:39:12;1018.1;;;3.3;66.1
57799;BME280;43626;53.866;30.298;2023-03-15T22:44:06;1018;;;3.3;66.2
57799;BME280;43626;53.866;30.298;2023-03-15T22:48:44;1018.1;;;3.3;66
57799;BME280;43626;53.866;30.298;2023-03-15T22:53:36;1018.1;;;3.3;65.9
57799;BME280;43626;53.866;30.298;2023-03-15T22:59:06;1018;;;3.3;65.9
57799;BME280;43626;53.866;30.298;2023-03-15T23:04:20;1018;;;3.3;66
57799;BME280;43626;53.866;30.298;2023-03-15T23:08:36;1018.1;;;3.4;65.8
57799;BME280;43626;53.866;30.298;2023-03-15T23:14:20;1018.1;;;3.5;65.7
57799;BME280;43626;53.866;30.298;2023-03-15T23:18:58;1018.1;;;3.5;65.3
57799;BME280;43626;53.866;30.298;2023-03-15T23:23:44;1018.1;;;3.3;65.6
57799;BME280;43626;53.866;30.298;2023-03-15T23:28:50;1018.1;;;3.2;66.1
57799;BME280;43626;53.866;30.298;2023-03-15T23:34:20;1018.1;;;3.1;66.4
57799;BME280;43626;53.866;30.298;2023-03-15T23:38:44;1018.1;;;3;66.9
57799;BME280;43626;53.866;30.298;2023-03-15T23:44:12;1018.1;;;3;66.8
57799;BME280;43626;53.866;30.298;2023-03-15T23:49:06;1018.2;;;2.9;67
57799;BME280;43626;53.866;30.298;2023-03-15T23:53:44;1018.2;;;3;67
57799;BME280;43626;53.866;30.298;2023-03-15T23:58:48;1018.1;;;3;67
